sensor_id;sensor_type;location;lat;lon;timestamp;pressure;altitude;pressure_sealevel;temperature;humidity
66479;BME280;53294;47.912;13.526;2023-06-04T00:01:27;96167.31;;;16.65;40.60
66479;BME280;53294;47.912;13.526;2023-06-04T00:03:53;96172.88;;;16.35;40.63
66479;BME280;53294;47.912;13.526;2023-06-04T00:06:20;96167.78;;;16.67;39.67
66479;BME280;53294;47.912;13.526;2023-06-04T00:08:47;96161.66;;;16.91;38.67
66479;BME280;53294;47.912;13.526;2023-06-04T00:11:13;96147.41;;;16.94;38.63
66479;BME280;53294;47.912;13.526;2023-06-04T00:13:41;96143.13;;;16.93;38.62
66479;BME280;53294;47.912;13.526;2023-06-04T00:16:07;96152.41;;;16.92;38.41
66479;BME280;53294;47.912;13.526;2023-06-04T00:18:34;96155.50;;;16.82;38.57
66479;BME280;53294;47.912;13.526;2023-06-04T00:21:01;96150.06;;;16.69;39.33
66479;BME280;53294;47.912;13.526;2023-06-04T00:23:27;96155.38;;;16.66;39.39
66479;BME280;53294;47.912;13.526;2023-06-04T00:25:54;96160.81;;;16.45;39.69
66479;BME280;53294;47.912;13.526;2023-06-04T00:28:20;96150.00;;;16.57;39.31
66479;BME280;53294;47.912;13.526;2023-06-04T00:30:48;96144.53;;;16.66;38.87
66479;BME280;53294;47.912;13.526;2023-06-04T00:33:14;96149.97;;;16.45;40.45
66479;BME280;53294;47.912;13.526;2023-06-04T00:35:41;96150.25;;;16.31;41.73
66479;BME280;53294;47.912;13.526;2023-06-04T00:38:08;96158.75;;;15.87;43.05
66479;BME280;53294;47.912;13.526;2023-06-04T00:40:34;96158.59;;;16.05;41.45
66479;BME280;53294;47.912;13.526;2023-06-04T00:43:01;96159.41;;;15.84;43.20
66479;BME280;53294;47.912;13.526;2023-06-04T00:45:28;96150.81;;;16.03;41.35
66479;BME280;53294;47.912;13.526;2023-06-04T00:47:57;96150.41;;;15.92;41.33
66479;BME280;53294;47.912;13.526;2023-06-04T00:50:24;96145.66;;;15.89;41.35
66479;BME280;53294;47.912;13.526;2023-06-04T00:52:51;96145.94;;;15.96;40.81
66479;BME280;53294;47.912;13.526;2023-06-04T00:55:17;96144.88;;;15.89;41.87
66479;BME280;53294;47.912;13.526;2023-06-04T00:57:44;96145.53;;;16.07;40.50
66479;BME280;53294;47.912;13.526;2023-06-04T01:00:11;96156.38;;;16.07;40.17
66479;BME280;53294;47.912;13.526;2023-06-04T01:02:39;96148.97;;;16.16;39.94
66479;BME280;53294;47.912;13.526;2023-06-04T01:07:36;96158.50;;;15.80;42.71
66479;BME280;53294;47.912;13.526;2023-06-04T01:10:03;96165.84;;;15.71;42.40
66479;BME280;53294;47.912;13.526;2023-06-04T01:12:30;96157.50;;;15.55;42.11
66479;BME280;53294;47.912;13.526;2023-06-04T01:14:57;96157.72;;;15.41;43.79
66479;BME280;53294;47.912;13.526;2023-06-04T01:17:29;96160.53;;;15.53;42.49
66479;BME280;53294;47.912;13.526;2023-06-04T01:25:04;96143.59;;;15.86;40.88
66479;BME280;53294;47.912;13.526;2023-06-04T01:27:31;96152.88;;;15.85;40.79
66479;BME280;53294;47.912;13.526;2023-06-04T01:29:59;96148.44;;;15.81;40.65
66479;BME280;53294;47.912;13.526;2023-06-04T01:32:27;96139.69;;;15.75;41.09
66479;BME280;53294;47.912;13.526;2023-06-04T01:34:54;96147.00;;;15.53;42.79
66479;BME280;53294;47.912;13.526;2023-06-04T01:37:20;96144.03;;;14.69;47.52
66479;BME280;53294;47.912;13.526;2023-06-04T01:39:47;96147.06;;;14.50;47.88
66479;BME280;53294;47.912;13.526;2023-06-04T01:42:14;96144.34;;;14.59;46.89
66479;BME280;53294;47.912;13.526;2023-06-04T01:44:40;96150.97;;;14.87;44.68
66479;BME280;53294;47.912;13.526;2023-06-04T01:47:07;96146.88;;;15.20;42.99
66479;BME280;53294;47.912;13.526;2023-06-04T01:49:34;96137.13;;;15.28;42.60
66479;BME280;53294;47.912;13.526;2023-06-04T01:52:01;96144.97;;;15.12;44.69
66479;BME280;53294;47.912;13.526;2023-06-04T01:54:27;96151.44;;;15.28;42.92
66479;BME280;53294;47.912;13.526;2023-06-04T01:56:56;96156.81;;;15.37;42.52
66479;BME280;53294;47.912;13.526;2023-06-04T01:59:22;96162.50;;;15.44;42.52
66479;BME280;53294;47.912;13.526;2023-06-04T02:01:49;96154.56;;;15.39;42.46
66479;BME280;53294;47.912;13.526;2023-06-04T02:04:16;96163.78;;;15.38;42.60
66479;BME280;53294;47.912;13.526;2023-06-04T02:06:42;96157.06;;;15.14;43.33
66479;BME280;53294;47.912;13.526;2023-06-04T02:09:09;96159.31;;;15.12;43.99
66479;BME280;53294;47.912;13.526;2023-06-04T02:11:35;96161.22;;;15.12;43.47
66479;BME280;53294;47.912;13.526;2023-06-04T02:14:02;96165.47;;;15.21;42.73
66479;BME280;53294;47.912;13.526;2023-06-04T02:16:29;96163.03;;;15.29;42.36
66479;BME280;53294;47.912;13.526;2023-06-04T02:18:55;96160.16;;;15.34;42.60
66479;BME280;53294;47.912;13.526;2023-06-04T02:21:22;96163.66;;;15.34;42.33
66479;BME280;53294;47.912;13.526;2023-06-04T02:23:49;96158.47;;;15.20;44.29
66479;BME280;53294;47.912;13.526;2023-06-04T02:26:15;96153.34;;;15.28;42.89
66479;BME280;53294;47.912;13.526;2023-06-04T02:28:42;96160.06;;;15.21;42.98
66479;BME280;53294;47.912;13.526;2023-06-04T02:31:09;96164.50;;;15.26;43.04
66479;BME280;53294;47.912;13.526;2023-06-04T02:33:35;96163.56;;;15.22;43.81
66479;BME280;53294;47.912;13.526;2023-06-04T02:36:02;96160.28;;;15.07;43.79
66479;BME280;53294;47.912;13.526;2023-06-04T02:38:29;96159.00;;;15.14;43.24
66479;BME280;53294;47.912;13.526;2023-06-04T02:40:55;96157.00;;;14.93;44.06
66479;BME280;53294;47.912;13.526;2023-06-04T02:43:22;96160.38;;;14.81;44.25
66479;BME280;53294;47.912;13.526;2023-06-04T02:45:48;96161.72;;;15.05;43.44
66479;BME280;53294;47.912;13.526;2023-06-04T02:48:15;96162.47;;;15.14;43.16
66479;BME280;53294;47.912;13.526;2023-06-04T02:50:42;96167.44;;;15.12;43.39
66479;BME280;53294;47.912;13.526;2023-06-04T02:53:11;96177.88;;;15.22;43.58
66479;BME280;53294;47.912;13.526;2023-06-04T02:55:38;96172.19;;;15.15;43.59
66479;BME280;53294;47.912;13.526;2023-06-04T02:58:04;96173.75;;;15.16;44.12
66479;BME280;53294;47.912;13.526;2023-06-04T03:00:31;96171.09;;;15.07;44.26
66479;BME280;53294;47.912;13.526;2023-06-04T03:02:57;96177.59;;;15.15;43.90
66479;BME280;53294;47.912;13.526;2023-06-04T03:05:28;96175.81;;;15.19;43.55
66479;BME280;53294;47.912;13.526;2023-06-04T03:07:58;96181.41;;;15.14;44.07
66479;BME280;53294;47.912;13.526;2023-06-04T03:10:25;96169.00;;;15.13;44.39
66479;BME280;53294;47.912;13.526;2023-06-04T03:12:52;96170.13;;;15.12;44.13
66479;BME280;53294;47.912;13.526;2023-06-04T03:15:19;96173.09;;;15.28;43.40
66479;BME280;53294;47.912;13.526;2023-06-04T03:17:45;96178.91;;;15.39;43.58
66479;BME280;53294;47.912;13.526;2023-06-04T03:20:12;96181.72;;;15.21;44.20
66479;BME280;53294;47.912;13.526;2023-06-04T03:22:38;96187.13;;;15.21;44.10
66479;BME280;53294;47.912;13.526;2023-06-04T03:25:05;96192.41;;;15.09;45.59
66479;BME280;53294;47.912;13.526;2023-06-04T03:27:32;96193.25;;;15.01;45.63
66479;BME280;53294;47.912;13.526;2023-06-04T03:29:59;96196.03;;;15.13;45.05
66479;BME280;53294;47.912;13.526;2023-06-04T03:32:26;96192.53;;;15.21;44.37
66479;BME280;53294;47.912;13.526;2023-06-04T03:34:53;96190.94;;;15.20;44.61
66479;BME280;53294;47.912;13.526;2023-06-04T03:37:19;96194.69;;;15.37;44.05
66479;BME280;53294;47.912;13.526;2023-06-04T03:39:46;96198.81;;;15.43;43.96
66479;BME280;53294;47.912;13.526;2023-06-04T03:42:13;96199.06;;;15.50;43.61
66479;BME280;53294;47.912;13.526;2023-06-04T03:44:39;96192.09;;;15.49;43.50
66479;BME280;53294;47.912;13.526;2023-06-04T03:47:06;96196.56;;;15.45;43.95
66479;BME280;53294;47.912;13.526;2023-06-04T03:49:33;96198.41;;;15.53;43.50
66479;BME280;53294;47.912;13.526;2023-06-04T03:51:59;96186.94;;;15.56;43.92
66479;BME280;53294;47.912;13.526;2023-06-04T03:54:26;96192.56;;;15.51;44.00
66479;BME280;53294;47.912;13.526;2023-06-04T03:56:52;96194.97;;;15.44;43.87
66479;BME280;53294;47.912;13.526;2023-06-04T03:59:19;96198.41;;;15.53;43.88
66479;BME280;53294;47.912;13.526;2023-06-04T04:01:45;96193.94;;;15.57;43.92
66479;BME280;53294;47.912;13.526;2023-06-04T04:04:12;96201.88;;;15.62;43.45
66479;BME280;53294;47.912;13.526;2023-06-04T04:06:39;96197.41;;;15.67;43.29
66479;BME280;53294;47.912;13.526;2023-06-04T04:09:06;96193.72;;;15.71;42.98
66479;BME280;53294;47.912;13.526;2023-06-04T04:11:33;96203.88;;;15.74;43.51
66479;BME280;53294;47.912;13.526;2023-06-04T04:13:59;96201.84;;;15.71;43.57
66479;BME280;53294;47.912;13.526;2023-06-04T04:16:27;96199.25;;;15.75;43.79
66479;BME280;53294;47.912;13.526;2023-06-04T04:18:54;96203.47;;;15.64;46.08
66479;BME280;53294;47.912;13.526;2023-06-04T04:21:21;96208.28;;;15.19;47.66
66479;BME280;53294;47.912;13.526;2023-06-04T04:23:48;96213.22;;;15.17;47.48
66479;BME280;53294;47.912;13.526;2023-06-04T04:26:15;96208.72;;;15.30;46.00
66479;BME280;53294;47.912;13.526;2023-06-04T04:28:43;96205.53;;;15.37;46.20
66479;BME280;53294;47.912;13.526;2023-06-04T04:31:10;96211.97;;;15.53;47.05
66479;BME280;53294;47.912;13.526;2023-06-04T04:33:36;96216.97;;;15.72;46.37
66479;BME280;53294;47.912;13.526;2023-06-04T04:36:06;96204.47;;;15.89;45.56
66479;BME280;53294;47.912;13.526;2023-06-04T04:38:35;96209.56;;;15.90;45.71
66479;BME280;53294;47.912;13.526;2023-06-04T04:41:01;96210.28;;;16.00;45.46
66479;BME280;53294;47.912;13.526;2023-06-04T04:43:31;96207.66;;;16.12;45.02
66479;BME280;53294;47.912;13.526;2023-06-04T04:45:58;96205.88;;;16.16;45.22
66479;BME280;53294;47.912;13.526;2023-06-04T04:48:25;96204.56;;;16.22;44.87
66479;BME280;53294;47.912;13.526;2023-06-04T04:50:52;96199.59;;;16.24;44.40
66479;BME280;53294;47.912;13.526;2023-06-04T04:53:19;96209.25;;;16.13;45.68
66479;BME280;53294;47.912;13.526;2023-06-04T04:55:46;96209.50;;;16.20;44.98
66479;BME280;53294;47.912;13.526;2023-06-04T04:58:12;96204.22;;;16.24;45.21
66479;BME280;53294;47.912;13.526;2023-06-04T05:00:39;96211.38;;;16.28;44.76
66479;BME280;53294;47.912;13.526;2023-06-04T05:03:06;96214.53;;;16.30;45.09
66479;BME280;53294;47.912;13.526;2023-06-04T05:05:32;96222.13;;;16.16;46.75
66479;BME280;53294;47.912;13.526;2023-06-04T05:07:59;96228.41;;;16.29;45.30
66479;BME280;53294;47.912;13.526;2023-06-04T05:10:26;96216.13;;;16.31;45.05
66479;BME280;53294;47.912;13.526;2023-06-04T05:15:19;96217.97;;;16.40;44.71
66479;BME280;53294;47.912;13.526;2023-06-04T05:17:46;96221.13;;;16.42;45.32
66479;BME280;53294;47.912;13.526;2023-06-04T05:20:13;96229.91;;;16.39;45.49
66479;BME280;53294;47.912;13.526;2023-06-04T05:22:40;96234.88;;;16.37;45.74
66479;BME280;53294;47.912;13.526;2023-06-04T05:25:07;96246.00;;;16.44;46.10
66479;BME280;53294;47.912;13.526;2023-06-04T05:27:35;96242.56;;;16.35;47.48
66479;BME280;53294;47.912;13.526;2023-06-04T05:30:04;96240.38;;;16.49;45.93
66479;BME280;53294;47.912;13.526;2023-06-04T05:32:31;96238.53;;;16.41;45.95
66479;BME280;53294;47.912;13.526;2023-06-04T05:34:59;96237.72;;;16.61;45.66
66479;BME280;53294;47.912;13.526;2023-06-04T05:37:26;96233.41;;;16.60;45.46
66479;BME280;53294;47.912;13.526;2023-06-04T05:39:55;96235.91;;;16.65;45.75
66479;BME280;53294;47.912;13.526;2023-06-04T05:42:22;96230.06;;;16.76;45.52
66479;BME280;53294;47.912;13.526;2023-06-04T05:44:49;96243.91;;;16.83;45.18
66479;BME280;53294;47.912;13.526;2023-06-04T05:47:16;96242.03;;;16.96;44.80
66479;BME280;53294;47.912;13.526;2023-06-04T05:49:43;96244.22;;;16.81;45.86
66479;BME280;53294;47.912;13.526;2023-06-04T05:52:09;96239.22;;;16.92;44.93
66479;BME280;53294;47.912;13.526;2023-06-04T05:54:36;96243.31;;;16.56;45.42
66479;BME280;53294;47.912;13.526;2023-06-04T05:57:05;96247.03;;;16.30;45.50
66479;BME280;53294;47.912;13.526;2023-06-04T05:59:32;96255.75;;;16.15;47.13
66479;BME280;53294;47.912;13.526;2023-06-04T06:01:59;96258.94;;;16.38;46.16
66479;BME280;53294;47.912;13.526;2023-06-04T06:04:26;96254.25;;;16.81;44.60
66479;BME280;53294;47.912;13.526;2023-06-04T06:06:52;96247.78;;;16.94;43.89
66479;BME280;53294;47.912;13.526;2023-06-04T06:09:19;96250.22;;;16.54;45.65
66479;BME280;53294;47.912;13.526;2023-06-04T06:11:46;96257.53;;;16.95;44.07
66479;BME280;53294;47.912;13.526;2023-06-04T06:14:13;96260.16;;;16.83;44.81
66479;BME280;53294;47.912;13.526;2023-06-04T06:16:39;96260.69;;;16.97;44.56
66479;BME280;53294;47.912;13.526;2023-06-04T06:19:06;96259.06;;;17.17;43.65
66479;BME280;53294;47.912;13.526;2023-06-04T06:21:33;96263.94;;;17.36;43.43
66479;BME280;53294;47.912;13.526;2023-06-04T06:23:59;96266.88;;;17.31;43.30
66479;BME280;53294;47.912;13.526;2023-06-04T06:26:26;96259.91;;;17.55;43.33
66479;BME280;53294;47.912;13.526;2023-06-04T06:28:53;96272.19;;;17.40;43.33
66479;BME280;53294;47.912;13.526;2023-06-04T06:31:19;96258.31;;;17.54;42.76
66479;BME280;53294;47.912;13.526;2023-06-04T06:33:46;96265.09;;;17.48;43.50
66479;BME280;53294;47.912;13.526;2023-06-04T06:36:13;96266.34;;;17.63;43.41
66479;BME280;53294;47.912;13.526;2023-06-04T06:38:40;96267.63;;;17.77;42.15
66479;BME280;53294;47.912;13.526;2023-06-04T06:41:07;96267.72;;;18.06;42.99
66479;BME280;53294;47.912;13.526;2023-06-04T06:43:34;96268.09;;;17.92;42.34
66479;BME280;53294;47.912;13.526;2023-06-04T06:46:01;96266.28;;;17.96;42.28
66479;BME280;53294;47.912;13.526;2023-06-04T06:48:27;96275.75;;;18.15;42.76
66479;BME280;53294;47.912;13.526;2023-06-04T06:50:54;96274.16;;;18.26;42.54
66479;BME280;53294;47.912;13.526;2023-06-04T06:53:21;96279.78;;;18.45;42.39
66479;BME280;53294;47.912;13.526;2023-06-04T06:55:48;96273.81;;;18.27;41.17
66479;BME280;53294;47.912;13.526;2023-06-04T06:58:14;96280.47;;;18.42;41.99
66479;BME280;53294;47.912;13.526;2023-06-04T07:00:41;96278.75;;;18.38;41.46
66479;BME280;53294;47.912;13.526;2023-06-04T07:03:08;96269.78;;;18.50;41.88
66479;BME280;53294;47.912;13.526;2023-06-04T07:05:35;96277.53;;;18.47;42.10
66479;BME280;53294;47.912;13.526;2023-06-04T07:08:01;96275.69;;;18.39;41.86
66479;BME280;53294;47.912;13.526;2023-06-04T07:10:29;96285.25;;;18.21;41.71
66479;BME280;53294;47.912;13.526;2023-06-04T07:12:56;96275.03;;;18.42;42.47
66479;BME280;53294;47.912;13.526;2023-06-04T07:15:23;96282.47;;;18.58;41.01
66479;BME280;53294;47.912;13.526;2023-06-04T07:17:49;96283.19;;;18.42;41.92
66479;BME280;53294;47.912;13.526;2023-06-04T07:20:16;96286.78;;;18.59;42.06
66479;BME280;53294;47.912;13.526;2023-06-04T07:22:43;96286.13;;;18.50;41.00
66479;BME280;53294;47.912;13.526;2023-06-04T07:25:09;96281.59;;;18.41;42.17
66479;BME280;53294;47.912;13.526;2023-06-04T07:27:36;96283.19;;;18.30;41.77
66479;BME280;53294;47.912;13.526;2023-06-04T07:30:03;96284.44;;;18.45;42.78
66479;BME280;53294;47.912;13.526;2023-06-04T07:32:29;96286.81;;;18.46;42.44
66479;BME280;53294;47.912;13.526;2023-06-04T07:34:56;96284.66;;;18.52;42.18
66479;BME280;53294;47.912;13.526;2023-06-04T07:37:23;96289.25;;;18.64;41.83
66479;BME280;53294;47.912;13.526;2023-06-04T07:39:49;96288.13;;;18.65;42.27
66479;BME280;53294;47.912;13.526;2023-06-04T07:42:16;96286.72;;;18.71;42.44
66479;BME280;53294;47.912;13.526;2023-06-04T07:44:42;96289.31;;;18.80;41.98
66479;BME280;53294;47.912;13.526;2023-06-04T07:47:10;96287.59;;;18.88;41.77
66479;BME280;53294;47.912;13.526;2023-06-04T07:49:36;96290.13;;;19.09;41.79
66479;BME280;53294;47.912;13.526;2023-06-04T07:52:16;96290.91;;;19.09;41.26
66479;BME280;53294;47.912;13.526;2023-06-04T07:54:42;96292.94;;;19.12;41.50
66479;BME280;53294;47.912;13.526;2023-06-04T07:57:09;96286.28;;;19.10;41.18
66479;BME280;53294;47.912;13.526;2023-06-04T07:59:36;96290.47;;;19.07;41.27
66479;BME280;53294;47.912;13.526;2023-06-04T08:02:03;96289.41;;;18.96;41.23
66479;BME280;53294;47.912;13.526;2023-06-04T08:04:29;96292.59;;;19.14;41.79
66479;BME280;53294;47.912;13.526;2023-06-04T08:06:56;96298.16;;;19.17;41.15
66479;BME280;53294;47.912;13.526;2023-06-04T08:09:23;96302.50;;;19.06;41.07
66479;BME280;53294;47.912;13.526;2023-06-04T08:11:49;96303.28;;;19.07;41.28
66479;BME280;53294;47.912;13.526;2023-06-04T08:14:16;96295.84;;;19.19;41.41
66479;BME280;53294;47.912;13.526;2023-06-04T08:16:43;96302.38;;;19.31;40.78
66479;BME280;53294;47.912;13.526;2023-06-04T08:19:10;96308.47;;;19.56;40.68
66479;BME280;53294;47.912;13.526;2023-06-04T08:21:37;96302.84;;;19.65;40.81
66479;BME280;53294;47.912;13.526;2023-06-04T08:24:03;96303.69;;;19.81;39.87
66479;BME280;53294;47.912;13.526;2023-06-04T08:26:30;96304.53;;;19.85;39.77
66479;BME280;53294;47.912;13.526;2023-06-04T08:28:57;96306.84;;;19.83;40.07
66479;BME280;53294;47.912;13.526;2023-06-04T08:31:23;96314.56;;;19.81;39.44
66479;BME280;53294;47.912;13.526;2023-06-04T08:33:50;96307.72;;;19.87;39.21
66479;BME280;53294;47.912;13.526;2023-06-04T08:36:16;96310.34;;;20.00;39.25
66479;BME280;53294;47.912;13.526;2023-06-04T08:38:43;96317.44;;;20.20;38.30
66479;BME280;53294;47.912;13.526;2023-06-04T08:41:15;96314.88;;;20.27;39.31
66479;BME280;53294;47.912;13.526;2023-06-04T08:43:43;96313.59;;;20.41;38.56
66479;BME280;53294;47.912;13.526;2023-06-04T08:46:10;96313.19;;;20.39;38.63
66479;BME280;53294;47.912;13.526;2023-06-04T08:48:38;96304.78;;;20.48;38.52
66479;BME280;53294;47.912;13.526;2023-06-04T08:51:05;96309.88;;;20.49;38.34
66479;BME280;53294;47.912;13.526;2023-06-04T08:53:34;96311.09;;;20.68;37.47
66479;BME280;53294;47.912;13.526;2023-06-04T08:56:01;96305.47;;;20.60;37.91
66479;BME280;53294;47.912;13.526;2023-06-04T08:58:27;96308.56;;;20.78;38.02
66479;BME280;53294;47.912;13.526;2023-06-04T09:00:57;96316.19;;;21.08;38.01
66479;BME280;53294;47.912;13.526;2023-06-04T09:03:24;96303.59;;;21.23;38.01
66479;BME280;53294;47.912;13.526;2023-06-04T09:05:52;96303.59;;;21.23;38.06
66479;BME280;53294;47.912;13.526;2023-06-04T09:08:20;96313.03;;;21.68;37.58
66479;BME280;53294;47.912;13.526;2023-06-04T09:10:48;96311.00;;;21.88;36.86
66479;BME280;53294;47.912;13.526;2023-06-04T09:13:18;96313.22;;;21.37;37.00
66479;BME280;53294;47.912;13.526;2023-06-04T09:15:45;96314.97;;;21.06;37.42
66479;BME280;53294;47.912;13.526;2023-06-04T09:18:11;96318.19;;;20.37;40.84
66479;BME280;53294;47.912;13.526;2023-06-04T09:20:38;96323.97;;;20.00;41.45
66479;BME280;53294;47.912;13.526;2023-06-04T09:23:14;96312.81;;;20.40;40.85
66479;BME280;53294;47.912;13.526;2023-06-04T09:25:42;96316.19;;;21.08;39.30
66479;BME280;53294;47.912;13.526;2023-06-04T09:28:09;96306.13;;;21.32;38.20
66479;BME280;53294;47.912;13.526;2023-06-04T09:30:36;96304.28;;;21.59;38.44
66479;BME280;53294;47.912;13.526;2023-06-04T09:33:06;96312.09;;;21.61;38.02
66479;BME280;53294;47.912;13.526;2023-06-04T09:35:33;96306.81;;;21.72;38.10
66479;BME280;53294;47.912;13.526;2023-06-04T09:37:59;96305.53;;;21.88;38.40
66479;BME280;53294;47.912;13.526;2023-06-04T09:40:34;96305.84;;;22.07;38.35
66479;BME280;53294;47.912;13.526;2023-06-04T09:43:01;96299.47;;;22.26;37.24
66479;BME280;53294;47.912;13.526;2023-06-04T09:45:29;96308.66;;;22.14;36.89
66479;BME280;53294;47.912;13.526;2023-06-04T09:47:57;96297.53;;;22.26;37.61
66479;BME280;53294;47.912;13.526;2023-06-04T09:50:25;96300.78;;;22.62;36.96
66479;BME280;53294;47.912;13.526;2023-06-04T09:52:52;96299.13;;;22.84;35.91
66479;BME280;53294;47.912;13.526;2023-06-04T09:55:19;96300.50;;;23.01;36.45
66479;BME280;53294;47.912;13.526;2023-06-04T09:57:47;96294.78;;;23.14;37.13
66479;BME280;53294;47.912;13.526;2023-06-04T10:00:18;96286.50;;;23.47;36.88
66479;BME280;53294;47.912;13.526;2023-06-04T10:02:47;96284.03;;;23.76;36.17
66479;BME280;53294;47.912;13.526;2023-06-04T10:05:15;96286.84;;;23.83;35.26
66479;BME280;53294;47.912;13.526;2023-06-04T10:07:42;96281.97;;;24.07;34.46
66479;BME280;53294;47.912;13.526;2023-06-04T10:10:31;96276.19;;;24.27;34.34
66479;BME280;53294;47.912;13.526;2023-06-04T10:13:00;96276.19;;;24.27;34.33
66479;BME280;53294;47.912;13.526;2023-06-04T10:15:28;96277.84;;;24.35;34.48
66479;BME280;53294;47.912;13.526;2023-06-04T10:17:55;96272.94;;;24.66;35.67
66479;BME280;53294;47.912;13.526;2023-06-04T10:20:22;96269.09;;;24.88;34.55
66479;BME280;53294;47.912;13.526;2023-06-04T10:22:49;96273.84;;;25.06;34.74
66479;BME280;53294;47.912;13.526;2023-06-04T10:25:16;96272.41;;;25.48;32.79
66479;BME280;53294;47.912;13.526;2023-06-04T10:27:43;96270.38;;;25.23;34.68
66479;BME280;53294;47.912;13.526;2023-06-04T10:30:10;96286.59;;;22.53;38.04
66479;BME280;53294;47.912;13.526;2023-06-04T10:32:37;96286.47;;;22.42;38.72
66479;BME280;53294;47.912;13.526;2023-06-04T10:35:06;96289.06;;;22.95;37.64
66479;BME280;53294;47.912;13.526;2023-06-04T10:37:36;96277.22;;;22.84;39.40
66479;BME280;53294;47.912;13.526;2023-06-04T10:40:03;96281.19;;;23.62;37.54
66479;BME280;53294;47.912;13.526;2023-06-04T10:42:40;96278.47;;;24.17;35.84
66479;BME280;53294;47.912;13.526;2023-06-04T10:45:07;96267.06;;;24.71;35.53
66479;BME280;53294;47.912;13.526;2023-06-04T10:47:34;96272.81;;;23.89;35.34
66479;BME280;53294;47.912;13.526;2023-06-04T10:50:13;96271.69;;;23.52;38.84
66479;BME280;53294;47.912;13.526;2023-06-04T10:52:52;96260.19;;;23.80;37.25
66479;BME280;53294;47.912;13.526;2023-06-04T10:55:19;96268.50;;;24.50;36.19
66479;BME280;53294;47.912;13.526;2023-06-04T10:57:53;96271.22;;;25.35;35.77
66479;BME280;53294;47.912;13.526;2023-06-04T11:00:19;96267.31;;;25.86;34.48
66479;BME280;53294;47.912;13.526;2023-06-04T11:02:50;96273.59;;;25.51;34.70
66479;BME280;53294;47.912;13.526;2023-06-04T11:05:17;96264.94;;;25.88;34.39
66479;BME280;53294;47.912;13.526;2023-06-04T11:07:45;96264.19;;;25.84;33.92
66479;BME280;53294;47.912;13.526;2023-06-04T11:10:12;96264.97;;;26.10;33.90
66479;BME280;53294;47.912;13.526;2023-06-04T11:12:46;96261.78;;;26.40;33.91
66479;BME280;53294;47.912;13.526;2023-06-04T11:15:13;96249.91;;;26.65;34.39
66479;BME280;53294;47.912;13.526;2023-06-04T11:17:52;96247.53;;;26.71;32.75
66479;BME280;53294;47.912;13.526;2023-06-04T11:20:20;96242.34;;;26.87;34.72
66479;BME280;53294;47.912;13.526;2023-06-04T11:22:53;96241.34;;;27.33;32.49
66479;BME280;53294;47.912;13.526;2023-06-04T11:25:20;96233.22;;;27.04;33.27
66479;BME280;53294;47.912;13.526;2023-06-04T11:27:49;96235.50;;;27.17;32.54
66479;BME280;53294;47.912;13.526;2023-06-04T11:30:16;96241.59;;;27.53;32.45
66479;BME280;53294;47.912;13.526;2023-06-04T11:32:43;96230.31;;;27.82;30.90
66479;BME280;53294;47.912;13.526;2023-06-04T11:35:09;96234.97;;;27.96;31.73
66479;BME280;53294;47.912;13.526;2023-06-04T11:37:38;96229.09;;;28.32;32.07
66479;BME280;53294;47.912;13.526;2023-06-04T11:40:17;96221.91;;;28.42;30.94
66479;BME280;53294;47.912;13.526;2023-06-04T11:42:45;96231.31;;;28.44;30.39
66479;BME280;53294;47.912;13.526;2023-06-04T11:45:13;96226.78;;;28.27;30.04
66479;BME280;53294;47.912;13.526;2023-06-04T11:47:47;96226.31;;;28.32;29.94
66479;BME280;53294;47.912;13.526;2023-06-04T11:50:14;96220.13;;;28.21;29.21
66479;BME280;53294;47.912;13.526;2023-06-04T11:52:41;96215.44;;;28.52;30.35
66479;BME280;53294;47.912;13.526;2023-06-04T11:55:08;96207.97;;;28.83;28.31
66479;BME280;53294;47.912;13.526;2023-06-04T11:57:36;96210.25;;;28.61;30.57
66479;BME280;53294;47.912;13.526;2023-06-04T12:00:03;96210.31;;;28.89;29.33
66479;BME280;53294;47.912;13.526;2023-06-04T12:02:39;96200.84;;;28.86;29.05
66479;BME280;53294;47.912;13.526;2023-06-04T12:05:14;96202.28;;;28.98;29.02
66479;BME280;53294;47.912;13.526;2023-06-04T12:07:41;96204.38;;;28.87;28.78
66479;BME280;53294;47.912;13.526;2023-06-04T12:10:08;96202.06;;;29.12;30.30
66479;BME280;53294;47.912;13.526;2023-06-04T12:12:35;96194.13;;;29.14;28.46
66479;BME280;53294;47.912;13.526;2023-06-04T12:15:01;96203.75;;;29.06;29.41
66479;BME280;53294;47.912;13.526;2023-06-04T12:17:30;96192.34;;;29.31;29.98
66479;BME280;53294;47.912;13.526;2023-06-04T12:19:56;96193.13;;;29.32;30.21
66479;BME280;53294;47.912;13.526;2023-06-04T12:22:25;96186.47;;;29.53;29.82
66479;BME280;53294;47.912;13.526;2023-06-04T12:24:56;96181.84;;;29.46;29.49
66479;BME280;53294;47.912;13.526;2023-06-04T12:27:24;96179.13;;;29.15;29.50
66479;BME280;53294;47.912;13.526;2023-06-04T12:29:57;96180.78;;;29.36;29.21
66479;BME280;53294;47.912;13.526;2023-06-04T12:32:24;96190.38;;;29.56;29.12
66479;BME280;53294;47.912;13.526;2023-06-04T12:34:50;96176.41;;;29.39;28.98
66479;BME280;53294;47.912;13.526;2023-06-04T12:37:17;96178.09;;;29.33;28.66
66479;BME280;53294;47.912;13.526;2023-06-04T12:39:43;96177.16;;;29.43;29.28
66479;BME280;53294;47.912;13.526;2023-06-04T12:42:10;96174.28;;;29.74;29.55
66479;BME280;53294;47.912;13.526;2023-06-04T12:44:39;96179.44;;;29.72;28.67
66479;BME280;53294;47.912;13.526;2023-06-04T12:47:06;96177.03;;;29.98;29.04
66479;BME280;53294;47.912;13.526;2023-06-04T12:49:33;96176.72;;;29.68;29.11
66479;BME280;53294;47.912;13.526;2023-06-04T12:52:00;96165.78;;;29.61;29.24
66479;BME280;53294;47.912;13.526;2023-06-04T12:54:27;96175.97;;;29.68;28.82
66479;BME280;53294;47.912;13.526;2023-06-04T12:56:54;96165.00;;;29.84;29.59
66479;BME280;53294;47.912;13.526;2023-06-04T12:59:23;96165.25;;;29.94;28.32
66479;BME280;53294;47.912;13.526;2023-06-04T13:01:49;96170.53;;;30.08;28.01